Time;durP1;ratioP1;P1;durP2;ratioP2;P2;SDS_P1;SDS_P2;PMS_P1;PMS_P2;Temp;Humidity;BMP_temperature;BMP_pressure;BME280_temperature;BME280_humidity;BME280_pressure;Samples;Min_cycle;Max_cycle;Signal;HPM_P1;HPM_P2
2024/04/02 00:01:34;;;;;;;;;29.25;13.00;;;;;;;;10454440;28;43055;-61
2024/04/02 00:06:38;;;;;;;;;34.50;14.75;;;;;;;;10448294;28;43075;-63
2024/04/02 00:11:41;;;;;;;;;37.25;22.00;;;;;;;;10449471;28;43997;-64
2024/04/02 00:16:44;;;;;;;;;34.75;17.50;;;;;;;;10462235;28;43736;-63
2024/04/02 00:21:47;;;;;;;;;35.75;17.50;;;;;;;;10460169;28;43624;-62
2024/04/02 00:26:50;;;;;;;;;52.00;30.50;;;;;;;;10457067;28;43796;-61
2024/04/02 00:31:54;;;;;;;;;56.50;33.50;;;;;;;;10458305;28;43056;-62
2024/04/02 00:36:57;;;;;;;;;55.00;35.75;;;;;;;;10448720;28;43910;-65
2024/04/02 00:42:00;;;;;;;;;44.75;30.75;;;;;;;;10436893;28;43359;-64
2024/04/02 00:47:03;;;;;;;;;53.50;30.75;;;;;;;;10448435;28;43265;-64
2024/04/02 00:52:06;;;;;;;;;50.00;29.25;;;;;;;;10437558;28;43008;-62
2024/04/02 00:57:09;;;;;;;;;46.50;29.00;;;;;;;;10457389;28;43375;-62
2024/04/02 01:02:12;;;;;;;;;44.00;26.50;;;;;;;;10465070;27;43241;-64
2024/04/02 01:07:15;;;;;;;;;41.75;22.75;;;;;;;;10457859;28;44357;-64
2024/04/02 01:12:18;;;;;;;;;47.75;28.50;;;;;;;;10458189;28;43009;-60
2024/04/02 01:17:20;;;;;;;;;45.50;28.25;;;;;;;;10457298;28;43094;-59
2024/04/02 01:22:23;;;;;;;;;52.25;28.75;;;;;;;;10463766;28;43676;-60
2024/04/02 01:27:26;;;;;;;;;46.25;23.50;;;;;;;;10455880;28;42931;-64
2024/04/02 01:32:28;;;;;;;;;42.50;18.75;;;;;;;;10448746;28;43356;-64
2024/04/02 01:37:31;;;;;;;;;39.75;19.75;;;;;;;;10454481;27;43654;-63
2024/04/02 01:42:33;;;;;;;;;43.75;24.75;;;;;;;;10454001;28;43016;-62
2024/04/02 01:47:35;;;;;;;;;37.50;19.50;;;;;;;;10453275;28;43684;-63
2024/04/02 01:52:38;;;;;;;;;37.00;18.25;;;;;;;;10454582;28;43039;-61
2024/04/02 01:57:40;;;;;;;;;39.25;20.50;;;;;;;;10453854;28;43033;-61
2024/04/02 02:02:42;;;;;;;;;38.00;22.50;;;;;;;;10438042;28;43340;-62
2024/04/02 02:07:45;;;;;;;;;39.50;21.25;;;;;;;;10434728;28;43183;-62
2024/04/02 02:12:47;;;;;;;;;37.50;19.25;;;;;;;;10435812;28;43687;-63
2024/04/02 02:17:50;;;;;;;;;44.75;17.00;;;;;;;;10432689;28;42982;-62
2024/04/02 02:22:52;;;;;;;;;35.00;20.25;;;;;;;;10453062;28;43177;-61
2024/04/02 02:27:55;;;;;;;;;36.00;16.25;;;;;;;;10434542;28;44837;-63
2024/04/02 02:32:57;;;;;;;;;41.75;19.00;;;;;;;;10454282;28;44330;-63
2024/04/02 02:37:59;;;;;;;;;31.00;17.00;;;;;;;;10451611;28;43263;-63
2024/04/02 02:43:01;;;;;;;;;36.00;15.25;;;;;;;;10452189;28;43736;-61
2024/04/02 02:48:04;;;;;;;;;35.00;15.25;;;;;;;;10453202;28;44459;-62
2024/04/02 02:53:06;;;;;;;;;33.00;18.00;;;;;;;;10454269;28;43028;-63
2024/04/02 02:58:08;;;;;;;;;39.00;21.25;;;;;;;;10459336;28;43050;-62
2024/04/02 03:03:11;;;;;;;;;29.00;15.50;;;;;;;;10471358;28;43708;-61
2024/04/02 03:08:13;;;;;;;;;30.75;15.75;;;;;;;;10436224;28;44051;-62
2024/04/02 03:13:16;;;;;;;;;31.00;15.25;;;;;;;;10434407;28;44589;-63
2024/04/02 03:18:18;;;;;;;;;38.25;15.50;;;;;;;;10454293;28;43322;-61
2024/04/02 03:23:20;;;;;;;;;36.50;17.25;;;;;;;;10460295;28;43236;-62
2024/04/02 03:28:26;;;;;;;;;33.50;17.00;;;;;;;;10450232;28;42969;-63
2024/04/02 03:33:32;;;;;;;;;33.00;13.25;;;;;;;;10436756;28;42916;-62
2024/04/02 03:38:34;;;;;;;;;32.50;17.75;;;;;;;;10450427;28;43112;-61
2024/04/02 03:43:38;;;;;;;;;31.75;15.75;;;;;;;;10449319;28;43143;-62
2024/04/02 03:48:40;;;;;;;;;30.50;15.75;;;;;;;;10442613;28;42966;-65
2024/04/02 03:53:42;;;;;;;;;30.00;16.00;;;;;;;;10459732;28;43357;-66
2024/04/02 03:58:45;;;;;;;;;33.50;14.50;;;;;;;;10473983;28;43622;-62
2024/04/02 04:03:47;;;;;;;;;31.25;14.25;;;;;;;;10457689;28;43360;-65
2024/04/02 04:08:49;;;;;;;;;29.00;14.25;;;;;;;;10457646;28;42908;-63
2024/04/02 04:13:52;;;;;;;;;30.50;12.50;;;;;;;;10462088;28;42992;-64
2024/04/02 04:18:54;;;;;;;;;34.25;18.00;;;;;;;;10454081;28;43562;-61
2024/04/02 04:23:56;;;;;;;;;35.00;12.50;;;;;;;;10452875;28;43569;-65
2024/04/02 04:28:59;;;;;;;;;27.00;11.50;;;;;;;;10458485;28;42972;-65
2024/04/02 04:34:01;;;;;;;;;30.75;14.00;;;;;;;;10455639;28;43962;-64
2024/04/02 04:39:05;;;;;;;;;31.25;17.00;;;;;;;;10441202;28;45532;-63
2024/04/02 04:44:07;;;;;;;;;36.00;13.00;;;;;;;;10462054;28;42999;-64
2024/04/02 04:49:10;;;;;;;;;29.25;14.00;;;;;;;;10459999;28;42980;-64
2024/04/02 04:54:12;;;;;;;;;31.25;13.25;;;;;;;;10456533;28;43036;-63
2024/04/02 04:59:15;;;;;;;;;31.50;15.50;;;;;;;;10456677;28;43058;-62
2024/04/02 05:04:17;;;;;;;;;33.00;17.50;;;;;;;;10467138;28;43398;-63
2024/04/02 05:09:23;;;;;;;;;41.50;21.75;;;;;;;;10461581;28;43923;-63
2024/04/02 05:14:25;;;;;;;;;37.50;19.50;;;;;;;;10462074;28;43494;-60
2024/04/02 05:19:27;;;;;;;;;36.75;22.25;;;;;;;;10455476;28;50335;-60
2024/04/02 05:24:29;;;;;;;;;43.50;23.75;;;;;;;;10439275;28;43929;-62
2024/04/02 05:29:32;;;;;;;;;37.75;23.00;;;;;;;;10454549;28;43064;-62
2024/04/02 05:34:34;;;;;;;;;34.75;21.50;;;;;;;;10456807;28;44678;-65
2024/04/02 05:39:36;;;;;;;;;47.25;29.50;;;;;;;;10454170;28;42978;-64
2024/04/02 05:44:39;;;;;;;;;51.25;35.00;;;;;;;;10461828;28;43043;-63
2024/04/02 05:49:41;;;;;;;;;55.75;35.50;;;;;;;;10455621;28;43332;-61
2024/04/02 05:54:43;;;;;;;;;59.75;40.50;;;;;;;;10457376;28;43053;-61
2024/04/02 05:59:46;;;;;;;;;57.50;39.50;;;;;;;;10453208;28;42981;-61
2024/04/02 06:04:48;;;;;;;;;57.25;38.00;;;;;;;;10453062;28;43007;-58
2024/04/02 06:09:50;;;;;;;;;62.75;42.75;;;;;;;;10429253;28;42979;-61
2024/04/02 06:14:53;;;;;;;;;62.75;44.25;;;;;;;;10418880;28;43183;-61
2024/04/02 06:19:55;;;;;;;;;62.25;39.00;;;;;;;;10452387;28;43578;-60
2024/04/02 06:24:57;;;;;;;;;49.50;35.50;;;;;;;;10416295;28;42954;-60
2024/04/02 06:30:00;;;;;;;;;52.75;35.00;;;;;;;;10413883;28;42995;-61
2024/04/02 06:35:02;;;;;;;;;55.25;34.50;;;;;;;;10436711;28;43762;-62
2024/04/02 06:40:06;;;;;;;;;48.75;31.50;;;;;;;;10449378;28;43021;-63
2024/04/02 06:45:09;;;;;;;;;53.75;34.50;;;;;;;;10414964;28;43063;-61
2024/04/02 06:50:13;;;;;;;;;46.50;30.50;;;;;;;;10461672;28;43076;-61
2024/04/02 06:55:16;;;;;;;;;62.25;42.25;;;;;;;;10455435;28;43070;-61
2024/04/02 07:00:20;;;;;;;;;50.00;33.00;;;;;;;;10453008;28;43018;-61
2024/04/02 07:05:26;;;;;;;;;59.25;38.75;;;;;;;;10456753;28;43229;-60
2024/04/02 07:10:29;;;;;;;;;50.75;34.25;;;;;;;;10453278;28;42959;-61
2024/04/02 07:15:33;;;;;;;;;59.75;36.00;;;;;;;;10457396;28;43375;-62
2024/04/02 07:20:38;;;;;;;;;49.00;28.75;;;;;;;;10456041;28;43588;-62
2024/04/02 07:25:42;;;;;;;;;48.50;27.25;;;;;;;;10461692;27;43973;-60
2024/04/02 07:30:46;;;;;;;;;48.25;31.25;;;;;;;;10441863;28;44906;-60
2024/04/02 07:35:54;;;;;;;;;45.25;29.00;;;;;;;;10413414;28;43066;-60
2024/04/02 07:40:59;;;;;;;;;39.50;22.50;;;;;;;;10456177;28;42912;-60
2024/04/02 07:46:02;;;;;;;;;42.75;26.25;;;;;;;;10453416;28;43753;-60
2024/04/02 07:51:09;;;;;;;;;45.75;23.00;;;;;;;;10441154;28;43829;-61
2024/04/02 07:56:13;;;;;;;;;54.50;27.25;;;;;;;;10454786;28;43084;-61
2024/04/02 08:01:17;;;;;;;;;45.00;28.75;;;;;;;;10455495;28;43102;-60
2024/04/02 08:06:22;;;;;;;;;56.50;35.25;;;;;;;;10453146;28;43178;-61
2024/04/02 08:11:25;;;;;;;;;56.50;32.00;;;;;;;;10451527;28;43779;-61
2024/04/02 08:16:29;;;;;;;;;51.25;33.00;;;;;;;;10451812;28;43016;-61
2024/04/02 08:21:32;;;;;;;;;57.00;33.50;;;;;;;;10453302;28;42966;-59
2024/04/02 08:26:36;;;;;;;;;47.50;29.00;;;;;;;;10449763;28;43447;-59
2024/04/02 08:31:39;;;;;;;;;51.25;31.75;;;;;;;;10428382;28;42964;-59
2024/04/02 08:36:43;;;;;;;;;59.50;38.00;;;;;;;;10459626;28;43387;-61
2024/04/02 08:41:50;;;;;;;;;64.75;36.25;;;;;;;;10460031;28;42941;-63
2024/04/02 08:46:54;;;;;;;;;62.75;35.25;;;;;;;;10454205;28;43003;-60
2024/04/02 08:51:59;;;;;;;;;51.50;30.75;;;;;;;;10456726;28;43757;-59
2024/04/02 08:57:04;;;;;;;;;49.50;29.00;;;;;;;;10461767;28;44031;-60
2024/04/02 09:02:09;;;;;;;;;46.75;24.00;;;;;;;;10459811;27;44226;-60
2024/04/02 09:07:14;;;;;;;;;47.25;26.75;;;;;;;;10456947;28;43077;-61
2024/04/02 09:12:19;;;;;;;;;44.00;23.75;;;;;;;;10454061;28;49266;-59
2024/04/02 09:17:23;;;;;;;;;43.50;25.25;;;;;;;;10461109;28;44109;-58
2024/04/02 09:22:26;;;;;;;;;41.50;20.25;;;;;;;;10458932;28;42976;-59
2024/04/02 09:27:30;;;;;;;;;46.50;22.00;;;;;;;;10462962;28;43026;-61
2024/04/02 09:32:36;;;;;;;;;44.25;23.25;;;;;;;;10448776;28;42960;-62
2024/04/02 09:37:41;;;;;;;;;44.25;22.50;;;;;;;;10437228;28;42990;-63
2024/04/02 09:42:47;;;;;;;;;51.75;24.00;;;;;;;;10456848;28;44284;-63
2024/04/02 09:47:52;;;;;;;;;49.00;23.50;;;;;;;;10470942;27;43935;-62
2024/04/02 09:52:57;;;;;;;;;47.50;21.50;;;;;;;;10470670;28;43811;-63
2024/04/02 09:58:00;;;;;;;;;46.25;21.50;;;;;;;;10462199;28;43270;-61
2024/04/02 10:03:05;;;;;;;;;49.00;23.75;;;;;;;;10428376;28;43513;-60
2024/04/02 10:08:11;;;;;;;;;43.00;22.00;;;;;;;;10411996;28;43743;-61
2024/04/02 10:13:15;;;;;;;;;40.25;18.25;;;;;;;;10434519;28;43109;-61
2024/04/02 10:18:23;;;;;;;;;44.00;20.25;;;;;;;;10453069;28;43705;-60
2024/04/02 10:23:25;;;;;;;;;43.25;18.00;;;;;;;;10431145;28;43595;-58
2024/04/02 10:28:32;;;;;;;;;37.75;15.50;;;;;;;;10418196;28;43190;-59
2024/04/02 10:33:39;;;;;;;;;38.75;18.25;;;;;;;;10438467;28;44742;-59
2024/04/02 10:38:43;;;;;;;;;45.25;17.75;;;;;;;;10454031;28;44484;-59
2024/04/02 10:43:48;;;;;;;;;34.75;16.50;;;;;;;;10462483;28;43001;-62
2024/04/02 10:48:55;;;;;;;;;36.50;13.50;;;;;;;;10456030;28;43511;-59
2024/04/02 10:53:59;;;;;;;;;38.25;15.75;;;;;;;;10486998;28;42902;-61
2024/04/02 10:59:03;;;;;;;;;45.00;22.25;;;;;;;;10480957;28;44169;-61
2024/04/02 11:04:07;;;;;;;;;40.50;19.00;;;;;;;;10458031;28;43591;-60
2024/04/02 11:09:11;;;;;;;;;41.25;25.25;;;;;;;;10452866;28;43085;-62
2024/04/02 11:14:15;;;;;;;;;41.75;22.00;;;;;;;;10453898;28;42966;-64
2024/04/02 11:19:18;;;;;;;;;37.00;17.50;;;;;;;;10453230;28;43012;-60
2024/04/02 11:29:46;;;;;;;;;46.75;19.00;;;;;;;;10453005;28;43217;-61
2024/04/02 11:34:58;;;;;;;;;34.75;16.50;;;;;;;;10451406;28;43008;-56
2024/04/02 11:40:02;;;;;;;;;44.75;18.25;;;;;;;;10453933;28;43782;-60
2024/04/02 11:45:07;;;;;;;;;39.50;18.25;;;;;;;;10460348;28;44508;-58
2024/04/02 11:50:11;;;;;;;;;37.50;16.50;;;;;;;;10451872;28;49813;-57
2024/04/02 11:55:15;;;;;;;;;34.25;13.00;;;;;;;;10491045;28;48961;-58
2024/04/02 12:00:18;;;;;;;;;35.50;12.00;;;;;;;;10495264;28;48443;-60
2024/04/02 12:05:23;;;;;;;;;33.75;12.00;;;;;;;;10494924;28;49923;-60
2024/04/02 12:10:26;;;;;;;;;33.50;14.75;;;;;;;;10495346;27;48434;-60
2024/04/02 12:15:30;;;;;;;;;30.75;11.75;;;;;;;;10466467;28;42946;-61
2024/04/02 12:20:33;;;;;;;;;34.75;12.00;;;;;;;;10475142;28;43382;-61
2024/04/02 12:25:36;;;;;;;;;35.00;12.25;;;;;;;;10474686;28;43744;-61
2024/04/02 12:30:40;;;;;;;;;31.00;14.50;;;;;;;;10445879;28;43034;-61
2024/04/02 12:35:44;;;;;;;;;26.50;10.25;;;;;;;;10459828;28;43684;-61
2024/04/02 12:40:48;;;;;;;;;35.25;11.00;;;;;;;;10476025;28;42983;-61
2024/04/02 12:45:51;;;;;;;;;29.00;9.75;;;;;;;;10501070;28;43156;-61
2024/04/02 12:50:55;;;;;;;;;26.75;9.00;;;;;;;;10476063;28;42981;-59
2024/04/02 12:55:58;;;;;;;;;28.25;7.50;;;;;;;;10458414;28;43507;-61
2024/04/02 13:01:03;;;;;;;;;29.50;8.75;;;;;;;;10458574;28;43026;-61
2024/04/02 13:06:07;;;;;;;;;34.50;9.50;;;;;;;;10458115;28;43801;-61
2024/04/02 13:11:11;;;;;;;;;27.75;11.00;;;;;;;;10459131;28;43350;-61
2024/04/02 13:16:35;;;;;;;;;26.00;10.75;;;;;;;;10457824;28;43099;-61
2024/04/02 13:21:39;;;;;;;;;28.75;7.75;;;;;;;;10456921;28;43830;-61
2024/04/02 13:26:41;;;;;;;;;28.00;8.25;;;;;;;;10451949;28;43427;-61
2024/04/02 13:31:43;;;;;;;;;22.00;7.00;;;;;;;;10456678;28;43686;-61
2024/04/02 13:36:46;;;;;;;;;26.00;7.25;;;;;;;;10432957;28;43556;-61
2024/04/02 13:41:49;;;;;;;;;25.00;8.25;;;;;;;;10408700;28;43619;-61
2024/04/02 13:46:52;;;;;;;;;22.25;9.00;;;;;;;;10436100;28;43911;-61
2024/04/02 13:51:57;;;;;;;;;21.00;8.00;;;;;;;;10415807;28;42962;-61
2024/04/02 13:57:02;;;;;;;;;24.00;9.50;;;;;;;;10416104;28;42951;-61
2024/04/02 14:02:07;;;;;;;;;26.25;7.00;;;;;;;;10432496;28;43717;-60
2024/04/02 14:07:11;;;;;;;;;25.00;8.50;;;;;;;;10415975;28;42969;-60
2024/04/02 14:12:15;;;;;;;;;27.00;10.00;;;;;;;;10430437;28;42989;-60
2024/04/02 14:17:18;;;;;;;;;24.25;7.75;;;;;;;;10432349;28;43793;-60
2024/04/02 14:22:23;;;;;;;;;28.00;7.75;;;;;;;;10431631;28;43182;-60
2024/04/02 14:27:27;;;;;;;;;23.75;10.50;;;;;;;;10424365;28;43771;-60
2024/04/02 14:32:31;;;;;;;;;23.25;8.25;;;;;;;;10413958;28;45473;-60
2024/04/02 14:37:35;;;;;;;;;23.25;10.25;;;;;;;;10430762;28;43097;-60
2024/04/02 14:42:38;;;;;;;;;27.50;11.25;;;;;;;;10431950;28;43930;-60
2024/04/02 14:47:42;;;;;;;;;24.25;9.50;;;;;;;;10429841;28;43502;-60
2024/04/02 14:52:46;;;;;;;;;27.75;7.00;;;;;;;;10425783;28;43779;-61
2024/04/02 14:57:49;;;;;;;;;28.50;11.25;;;;;;;;10430453;28;43043;-60
2024/04/02 15:02:53;;;;;;;;;27.00;10.75;;;;;;;;10422388;28;43502;-61
2024/04/02 15:07:57;;;;;;;;;27.75;6.25;;;;;;;;10429882;28;43991;-60
2024/04/02 15:13:02;;;;;;;;;31.75;10.50;;;;;;;;10430026;28;43760;-61
2024/04/02 15:18:07;;;;;;;;;22.75;9.25;;;;;;;;10429541;28;43631;-61
2024/04/02 15:23:12;;;;;;;;;23.25;9.75;;;;;;;;10424695;28;43091;-60
2024/04/02 15:28:17;;;;;;;;;23.75;8.75;;;;;;;;10427829;28;43065;-61
2024/04/02 15:33:20;;;;;;;;;27.75;13.75;;;;;;;;10415060;28;43443;-61
2024/04/02 15:38:24;;;;;;;;;23.50;11.00;;;;;;;;10426995;28;43087;-61
2024/04/02 15:43:28;;;;;;;;;28.75;12.00;;;;;;;;10427860;28;44124;-61
2024/04/02 15:48:31;;;;;;;;;26.75;11.75;;;;;;;;10424026;28;43103;-62
2024/04/02 15:53:35;;;;;;;;;34.00;13.25;;;;;;;;10434985;28;43920;-60
2024/04/02 15:58:39;;;;;;;;;36.25;14.25;;;;;;;;10435338;28;43548;-60
2024/04/02 16:03:43;;;;;;;;;26.00;11.00;;;;;;;;10434914;28;45457;-61
2024/04/02 16:08:48;;;;;;;;;30.25;13.00;;;;;;;;10433841;28;43634;-60
2024/04/02 16:13:53;;;;;;;;;31.50;12.00;;;;;;;;10435876;28;43037;-60
2024/04/02 16:18:59;;;;;;;;;29.25;11.50;;;;;;;;10436515;28;44221;-60
2024/04/02 16:24:04;;;;;;;;;25.25;11.50;;;;;;;;10423313;28;42981;-61
2024/04/02 16:29:10;;;;;;;;;30.25;14.00;;;;;;;;10435616;28;43566;-61
2024/04/02 16:34:14;;;;;;;;;32.75;13.50;;;;;;;;10439103;28;42998;-61
2024/04/02 16:39:18;;;;;;;;;27.75;12.75;;;;;;;;10459573;28;43506;-60
2024/04/02 16:44:22;;;;;;;;;26.25;12.75;;;;;;;;10460737;28;43052;-61
2024/04/02 16:49:25;;;;;;;;;26.25;12.00;;;;;;;;10457784;28;43121;-61
2024/04/02 16:54:29;;;;;;;;;29.75;15.75;;;;;;;;10458765;28;42924;-61
2024/04/02 16:59:32;;;;;;;;;38.00;15.25;;;;;;;;10457864;28;43087;-61
2024/04/02 17:04:36;;;;;;;;;33.50;12.50;;;;;;;;10457025;28;43019;-60
2024/04/02 17:09:39;;;;;;;;;31.75;16.75;;;;;;;;10458872;28;42988;-61
2024/04/02 17:14:43;;;;;;;;;29.00;13.75;;;;;;;;10441853;28;42983;-61
2024/04/02 17:19:50;;;;;;;;;27.25;12.75;;;;;;;;10457446;28;43032;-61
2024/04/02 17:24:55;;;;;;;;;33.25;16.50;;;;;;;;10458769;28;43032;-61
2024/04/02 17:30:01;;;;;;;;;31.00;14.50;;;;;;;;10457831;28;42978;-61
2024/04/02 17:35:05;;;;;;;;;29.00;13.50;;;;;;;;10456289;28;43062;-61
2024/04/02 17:40:10;;;;;;;;;29.25;14.25;;;;;;;;10456366;28;44148;-62
2024/04/02 17:45:13;;;;;;;;;29.50;13.00;;;;;;;;10456760;28;43204;-62
2024/04/02 17:50:16;;;;;;;;;29.50;13.25;;;;;;;;10458457;28;48416;-61
2024/04/02 17:55:20;;;;;;;;;30.25;15.50;;;;;;;;10467794;28;43834;-62
2024/04/02 18:00:23;;;;;;;;;31.00;14.25;;;;;;;;10498529;28;43037;-61
2024/04/02 18:05:27;;;;;;;;;29.00;14.50;;;;;;;;10498266;28;43488;-61
2024/04/02 18:10:30;;;;;;;;;27.00;14.00;;;;;;;;10497351;27;42948;-61
2024/04/02 18:15:34;;;;;;;;;32.00;15.50;;;;;;;;10485134;28;43768;-61
2024/04/02 18:20:37;;;;;;;;;27.50;13.50;;;;;;;;10492805;28;44025;-61
2024/04/02 18:25:41;;;;;;;;;31.75;15.25;;;;;;;;10468751;28;50281;-61
2024/04/02 18:30:57;;;;;;;;;30.00;16.00;;;;;;;;10456516;28;43589;-61
2024/04/02 18:36:00;;;;;;;;;34.00;14.50;;;;;;;;10455456;28;48542;-61
2024/04/02 18:41:03;;;;;;;;;30.25;12.25;;;;;;;;10455565;28;48489;-62
2024/04/02 18:46:08;;;;;;;;;33.00;16.00;;;;;;;;10453913;28;43345;-60
2024/04/02 18:51:12;;;;;;;;;33.50;17.25;;;;;;;;10454471;28;43364;-62
2024/04/02 18:56:19;;;;;;;;;29.75;15.75;;;;;;;;10454885;28;43885;-61
2024/04/02 19:01:22;;;;;;;;;32.00;18.00;;;;;;;;10480640;28;43578;-61
2024/04/02 19:06:29;;;;;;;;;33.00;13.75;;;;;;;;10485822;28;43966;-62
2024/04/02 19:11:34;;;;;;;;;31.25;17.00;;;;;;;;10453815;28;42955;-61
2024/04/02 19:16:38;;;;;;;;;30.25;15.50;;;;;;;;10454275;28;43604;-61
2024/04/02 19:21:42;;;;;;;;;30.75;14.75;;;;;;;;10452634;28;43190;-61
2024/04/02 19:26:46;;;;;;;;;28.75;14.00;;;;;;;;10453315;28;43649;-61
2024/04/02 19:31:54;;;;;;;;;29.75;12.50;;;;;;;;10453781;28;43036;-61
2024/04/02 19:36:58;;;;;;;;;34.00;16.75;;;;;;;;10428921;28;43374;-61
2024/04/02 19:42:01;;;;;;;;;32.50;17.50;;;;;;;;10429148;28;42971;-61
2024/04/02 19:47:05;;;;;;;;;29.75;14.25;;;;;;;;10428373;28;43289;-61
2024/04/02 19:52:10;;;;;;;;;28.00;14.00;;;;;;;;10427739;28;42996;-61
2024/04/02 19:57:14;;;;;;;;;30.50;17.50;;;;;;;;10427738;28;43026;-61
2024/04/02 20:02:17;;;;;;;;;34.75;17.50;;;;;;;;10427641;28;44090;-61
2024/04/02 20:07:21;;;;;;;;;37.25;22.00;;;;;;;;10410497;28;43617;-61
2024/04/02 20:12:25;;;;;;;;;34.75;19.00;;;;;;;;10427322;28;43017;-61
2024/04/02 20:17:29;;;;;;;;;37.50;20.00;;;;;;;;10428937;28;43972;-61
2024/04/02 20:22:32;;;;;;;;;35.25;16.25;;;;;;;;10424477;28;43229;-61
2024/04/02 20:27:38;;;;;;;;;33.25;16.75;;;;;;;;10414159;28;43713;-61
2024/04/02 20:32:42;;;;;;;;;36.50;18.75;;;;;;;;10417252;28;43769;-59
2024/04/02 20:37:47;;;;;;;;;40.00;17.25;;;;;;;;10434163;28;43069;-59
2024/04/02 20:42:51;;;;;;;;;35.75;17.75;;;;;;;;10416422;28;44750;-58
2024/04/02 20:47:55;;;;;;;;;33.00;16.75;;;;;;;;10433475;28;43687;-61
2024/04/02 20:52:58;;;;;;;;;40.25;16.75;;;;;;;;10429865;28;43438;-61
2024/04/02 20:58:02;;;;;;;;;33.00;19.25;;;;;;;;10431284;28;42920;-61
2024/04/02 21:03:06;;;;;;;;;32.50;14.75;;;;;;;;10433577;28;43035;-61
2024/04/02 21:08:11;;;;;;;;;36.25;18.00;;;;;;;;10434326;28;43049;-61
2024/04/02 21:13:15;;;;;;;;;33.00;17.25;;;;;;;;10433687;28;43644;-61
2024/04/02 21:18:20;;;;;;;;;35.50;19.00;;;;;;;;10433693;28;43837;-61
2024/04/02 21:23:23;;;;;;;;;32.50;17.25;;;;;;;;10432081;28;49475;-61
2024/04/02 21:28:27;;;;;;;;;33.00;16.75;;;;;;;;10432721;28;42998;-61
2024/04/02 21:33:31;;;;;;;;;34.75;18.50;;;;;;;;10425007;28;43558;-63
2024/04/02 21:38:36;;;;;;;;;33.50;20.25;;;;;;;;10392678;28;43048;-62
2024/04/02 21:43:40;;;;;;;;;34.75;18.50;;;;;;;;10389013;28;43582;-59
2024/04/02 21:48:43;;;;;;;;;31.75;17.25;;;;;;;;10390169;28;43250;-59
2024/04/02 21:53:46;;;;;;;;;37.25;19.25;;;;;;;;10389236;28;43260;-62
2024/04/02 21:58:50;;;;;;;;;34.50;20.25;;;;;;;;10389259;28;42987;-62
2024/04/02 22:03:54;;;;;;;;;36.50;18.00;;;;;;;;10389013;28;43666;-62
2024/04/02 22:08:57;;;;;;;;;37.50;21.00;;;;;;;;10400462;28;44043;-61
2024/04/02 22:14:02;;;;;;;;;37.75;22.00;;;;;;;;10421260;28;43832;-63
2024/04/02 22:19:06;;;;;;;;;40.50;21.00;;;;;;;;10420448;28;43011;-58
2024/04/02 22:24:09;;;;;;;;;37.75;21.50;;;;;;;;10414631;28;43044;-59
2024/04/02 22:29:13;;;;;;;;;41.25;23.50;;;;;;;;10419762;28;44111;-60
2024/04/02 22:34:18;;;;;;;;;44.50;19.75;;;;;;;;10407103;28;43821;-60
2024/04/02 22:39:22;;;;;;;;;43.25;23.75;;;;;;;;10453698;28;43012;-58
2024/04/02 22:44:26;;;;;;;;;38.00;19.00;;;;;;;;10454778;28;43302;-59
2024/04/02 22:49:30;;;;;;;;;30.50;17.75;;;;;;;;10487616;28;44044;-59
2024/04/02 22:54:34;;;;;;;;;41.25;23.00;;;;;;;;10452280;28;43587;-60
2024/04/02 22:59:37;;;;;;;;;38.75;20.25;;;;;;;;10477896;28;43035;-60
2024/04/02 23:04:41;;;;;;;;;41.75;18.25;;;;;;;;10442002;28;44340;-60
2024/04/02 23:09:45;;;;;;;;;33.75;16.50;;;;;;;;10452653;28;43783;-59
2024/04/02 23:14:49;;;;;;;;;31.75;18.75;;;;;;;;10453438;28;43608;-61
2024/04/02 23:19:52;;;;;;;;;35.25;19.75;;;;;;;;10452469;28;43243;-59
2024/04/02 23:24:56;;;;;;;;;35.25;18.00;;;;;;;;10455769;28;44014;-59
2024/04/02 23:30:00;;;;;;;;;38.25;20.75;;;;;;;;10454839;28;44261;-62
2024/04/02 23:35:04;;;;;;;;;40.50;24.75;;;;;;;;10434609;28;43151;-62
2024/04/02 23:40:09;;;;;;;;;36.00;19.00;;;;;;;;10452565;28;43656;-62
2024/04/02 23:45:14;;;;;;;;;36.25;18.75;;;;;;;;10452896;28;48577;-59
2024/04/02 23:50:18;;;;;;;;;38.25;20.75;;;;;;;;10476623;28;44336;-60
2024/04/02 23:55:22;;;;;;;;;41.75;20.00;;;;;;;;10492427;27;43088;-60
